Time;durP1;ratioP1;P1;durP2;ratioP2;P2;SDS_P1;SDS_P2;PMS_P1;PMS_P2;Temp;Humidity;BMP_temperature;BMP_pressure;BME280_temperature;BME280_humidity;BME280_pressure;Samples;Min_cycle;Max_cycle;Signal;HPM_P1;HPM_P2
2021/03/24 00:01:17;;;;;;;63.17;38.63;;;9.40;94.40;;;;;;5046942;28;20517;-74
2021/03/24 00:03:43;;;;;;;64.63;39.10;;;9.30;94.40;;;;;;5045916;28;20429;-75
2021/03/24 00:06:11;;;;;;;66.25;40.00;;;9.30;94.40;;;;;;5046748;28;20432;-75
2021/03/24 00:08:38;;;;;;;64.83;39.53;;;9.30;94.50;;;;;;5044979;28;20413;-75
2021/03/24 00:11:05;;;;;;;67.05;39.22;;;9.30;94.50;;;;;;5048161;28;20432;-75
2021/03/24 00:13:32;;;;;;;68.05;39.70;;;9.30;94.60;;;;;;5046828;28;20425;-75
2021/03/24 00:15:59;;;;;;;64.55;39.28;;;9.30;94.70;;;;;;5049089;28;20421;-75
2021/03/24 00:18:26;;;;;;;63.17;39.30;;;9.20;94.70;;;;;;5046988;28;20488;-75
2021/03/24 00:20:53;;;;;;;65.43;38.40;;;9.20;94.70;;;;;;5048931;28;20901;-75
2021/03/24 00:23:20;;;;;;;65.10;38.73;;;9.20;94.80;;;;;;5029494;28;20431;-74
2021/03/24 00:25:46;;;;;;;63.00;38.00;;;9.20;94.80;;;;;;5030302;28;20508;-75
2021/03/24 00:28:13;;;;;;;61.72;38.28;;;9.20;94.80;;;;;;5029370;28;20921;-75
2021/03/24 00:30:42;;;;;;;68.43;39.22;;;9.20;94.80;;;;;;5048514;28;20425;-76
2021/03/24 00:33:10;;;;;;;67.00;37.28;;;9.20;94.90;;;;;;5048607;28;20433;-73
2021/03/24 00:35:36;;;;;;;65.90;37.93;;;9.20;94.90;;;;;;5046491;28;20437;-73
2021/03/24 00:38:03;;;;;;;66.45;39.92;;;9.20;95.00;;;;;;5046572;28;20425;-74
2021/03/24 00:40:33;;;;;;;66.07;39.63;;;9.20;95.10;;;;;;5049628;28;20424;-73
2021/03/24 00:43:00;;;;;;;62.78;39.05;;;9.10;95.00;;;;;;5045156;28;20425;-74
2021/03/24 00:45:26;;;;;;;63.35;39.55;;;9.10;95.10;;;;;;5048631;28;20471;-74
2021/03/24 00:47:54;;;;;;;68.57;39.75;;;9.10;95.10;;;;;;5043094;28;20437;-74
2021/03/24 00:50:24;;;;;;;65.40;39.85;;;9.10;95.20;;;;;;5048847;28;20432;-73
2021/03/24 00:52:51;;;;;;;69.97;40.35;;;9.10;95.20;;;;;;5045200;28;20425;-75
2021/03/24 00:55:18;;;;;;;65.70;39.50;;;9.10;95.20;;;;;;5047239;28;20421;-74
2021/03/24 00:57:45;;;;;;;69.10;40.60;;;9.10;95.20;;;;;;5028724;28;20432;-74
2021/03/24 01:00:17;;;;;;;68.95;40.35;;;9.10;95.30;;;;;;5047511;28;20433;-74
2021/03/24 01:02:44;;;;;;;67.45;39.78;;;9.10;95.30;;;;;;5045354;28;20425;-74
2021/03/24 01:05:13;;;;;;;69.22;40.33;;;9.00;95.30;;;;;;5029407;28;20447;-74
2021/03/24 01:07:40;;;;;;;68.97;39.50;;;9.00;95.40;;;;;;5043334;28;20429;-74
2021/03/24 01:10:09;;;;;;;70.47;40.33;;;9.00;95.50;;;;;;5047273;28;20440;-75
2021/03/24 01:12:35;;;;;;;71.50;40.85;;;9.00;95.60;;;;;;5048042;28;20433;-74
2021/03/24 01:15:03;;;;;;;69.28;40.83;;;9.00;95.60;;;;;;5048218;28;20444;-74
2021/03/24 01:17:29;;;;;;;65.65;40.33;;;9.00;95.60;;;;;;5046613;28;20428;-75
2021/03/24 01:19:56;;;;;;;72.53;41.65;;;9.00;95.60;;;;;;5048030;28;20440;-76
2021/03/24 01:22:22;;;;;;;72.13;41.80;;;9.00;95.50;;;;;;5029495;28;20437;-74
2021/03/24 01:24:48;;;;;;;70.18;41.92;;;9.00;95.60;;;;;;5047102;28;20421;-74
2021/03/24 01:27:15;;;;;;;70.85;41.90;;;9.00;95.70;;;;;;5047746;28;20436;-74
2021/03/24 01:29:41;;;;;;;68.15;41.83;;;9.00;95.70;;;;;;5047210;28;20429;-74
2021/03/24 01:32:09;;;;;;;74.38;42.83;;;9.00;95.70;;;;;;5028585;28;20425;-75
2021/03/24 01:34:35;;;;;;;70.57;42.33;;;9.00;95.80;;;;;;5048281;28;20901;-76
2021/03/24 01:37:02;;;;;;;74.63;42.83;;;9.00;95.80;;;;;;5030491;28;20482;-75
2021/03/24 01:39:29;;;;;;;75.03;41.65;;;8.90;95.70;;;;;;5046884;28;20430;-74
2021/03/24 01:41:55;;;;;;;76.60;42.95;;;8.90;95.80;;;;;;5043557;28;20435;-75
2021/03/24 01:44:21;;;;;;;82.60;43.97;;;8.90;96.20;;;;;;5039882;28;20417;-75
2021/03/24 01:46:48;;;;;;;79.55;43.88;;;8.90;95.90;;;;;;5048073;28;20422;-75
2021/03/24 01:49:24;;;;;;;75.75;43.35;;;8.90;96.00;;;;;;5024091;28;21352;-75
2021/03/24 01:51:55;;;;;;;76.35;43.45;;;8.80;96.00;;;;;;5044040;28;20483;-74
2021/03/24 01:54:24;;;;;;;74.22;43.13;;;8.80;96.10;;;;;;5028061;28;20421;-76
2021/03/24 01:56:57;;;;;;;73.53;43.08;;;8.90;96.20;;;;;;5043778;28;20433;-74
2021/03/24 01:59:23;;;;;;;78.38;43.30;;;8.80;96.20;;;;;;5043357;28;20433;-74
2021/03/24 02:01:50;;;;;;;76.15;42.72;;;8.80;96.20;;;;;;5047407;28;20908;-74
2021/03/24 02:04:16;;;;;;;79.05;43.45;;;8.90;96.30;;;;;;5045391;28;20968;-74
2021/03/24 02:06:50;;;;;;;77.57;44.00;;;8.80;96.30;;;;;;5046510;28;20425;-75
2021/03/24 02:09:26;;;;;;;75.93;44.03;;;8.80;96.20;;;;;;5026489;28;20452;-75
2021/03/24 02:11:58;;;;;;;76.80;43.35;;;8.80;96.30;;;;;;5023767;28;20432;-75
2021/03/24 02:14:29;;;;;;;77.85;43.72;;;8.80;96.60;;;;;;5046549;28;20479;-76
2021/03/24 02:16:57;;;;;;;79.07;44.00;;;8.80;96.20;;;;;;5045871;28;20425;-74
2021/03/24 02:19:44;;;;;;;75.95;44.90;;;8.80;96.20;;;;;;5043000;28;20437;-75
2021/03/24 02:22:16;;;;;;;78.15;44.83;;;8.80;96.10;;;;;;5045271;28;20447;-74
2021/03/24 02:24:51;;;;;;;78.97;44.77;;;8.80;96.20;;;;;;5045698;28;20523;-74
2021/03/24 02:27:21;;;;;;;77.57;44.40;;;8.80;96.30;;;;;;5043655;28;20443;-74
2021/03/24 02:29:51;;;;;;;79.55;44.63;;;8.70;96.30;;;;;;5045100;28;20425;-74
2021/03/24 02:32:22;;;;;;;78.13;44.35;;;8.70;96.40;;;;;;5045906;28;20843;-74
2021/03/24 02:34:50;;;;;;;76.95;44.35;;;8.70;96.50;;;;;;5046164;28;20424;-75
2021/03/24 02:37:18;;;;;;;82.13;45.65;;;8.70;96.50;;;;;;5044711;28;20431;-74
2021/03/24 02:39:46;;;;;;;78.90;44.35;;;8.70;96.60;;;;;;5045322;28;20923;-75
2021/03/24 02:42:15;;;;;;;81.68;45.55;;;8.70;96.60;;;;;;5046287;28;21065;-74
2021/03/24 02:44:45;;;;;;;85.15;45.35;;;8.60;96.60;;;;;;5044408;28;20507;-74
2021/03/24 02:47:12;;;;;;;75.85;44.08;;;8.60;96.70;;;;;;5028538;28;20421;-74
2021/03/24 02:49:41;;;;;;;81.40;45.50;;;8.60;96.80;;;;;;5027297;28;20460;-74
2021/03/24 02:52:09;;;;;;;77.88;45.15;;;8.60;96.90;;;;;;5046665;28;20433;-76
2021/03/24 02:54:36;;;;;;;81.47;45.08;;;8.50;97.00;;;;;;5043533;28;20431;-74
2021/03/24 02:57:03;;;;;;;77.47;44.85;;;8.50;97.10;;;;;;5046478;28;20928;-74
2021/03/24 02:59:30;;;;;;;82.63;46.08;;;8.50;97.20;;;;;;5027519;28;20430;-75
2021/03/24 03:02:05;;;;;;;79.85;45.35;;;8.50;97.30;;;;;;5044666;28;20524;-73
2021/03/24 03:04:36;;;;;;;83.10;46.40;;;8.50;97.30;;;;;;5045832;28;20794;-75
2021/03/24 03:07:07;;;;;;;80.95;46.53;;;8.40;97.30;;;;;;5044047;28;20448;-74
2021/03/24 03:09:42;;;;;;;82.03;46.38;;;8.40;97.40;;;;;;5043582;28;20906;-74
2021/03/24 03:12:14;;;;;;;83.57;46.85;;;8.40;97.50;;;;;;5046155;28;20906;-73
2021/03/24 03:14:46;;;;;;;86.32;46.75;;;8.40;97.50;;;;;;5042995;28;20789;-74
2021/03/24 03:17:19;;;;;;;84.70;46.83;;;8.40;97.50;;;;;;5044970;28;20440;-74
2021/03/24 03:19:53;;;;;;;84.40;46.88;;;8.40;97.60;;;;;;5044280;28;20435;-74
2021/03/24 03:22:24;;;;;;;82.53;45.95;;;8.30;97.50;;;;;;5046085;28;20436;-74
2021/03/24 03:24:55;;;;;;;81.47;46.92;;;8.30;97.50;;;;;;5040543;28;20992;-74
2021/03/24 03:27:26;;;;;;;86.70;47.55;;;8.30;97.60;;;;;;5046014;28;20429;-74
2021/03/24 03:29:56;;;;;;;86.18;47.15;;;8.40;97.70;;;;;;5042106;28;20426;-74
2021/03/24 03:32:25;;;;;;;84.18;46.75;;;8.40;97.70;;;;;;5045801;28;20794;-74
2021/03/24 03:34:56;;;;;;;81.55;46.70;;;8.40;97.70;;;;;;5043230;28;20433;-74
2021/03/24 03:37:25;;;;;;;81.75;46.85;;;8.30;97.70;;;;;;5028284;28;20831;-74
2021/03/24 03:39:54;;;;;;;83.93;46.80;;;8.30;97.80;;;;;;5027015;28;20433;-75
2021/03/24 03:42:23;;;;;;;83.80;45.83;;;8.30;97.90;;;;;;5024201;28;20940;-75
2021/03/24 03:44:51;;;;;;;89.10;48.45;;;8.30;98.00;;;;;;5021388;28;20466;-75
2021/03/24 03:47:18;;;;;;;84.60;47.13;;;8.20;98.10;;;;;;5026343;28;20460;-74
2021/03/24 03:49:45;;;;;;;88.53;47.08;;;8.20;98.20;;;;;;5043892;28;20792;-74
2021/03/24 03:52:40;;;;;;;84.45;46.78;;;8.20;98.40;;;;;;5045035;28;20793;-75
2021/03/24 03:55:19;;;;;;;85.85;47.33;;;8.10;98.50;;;;;;5042952;28;20489;-76
2021/03/24 03:57:53;;;;;;;85.32;47.22;;;8.10;98.50;;;;;;5045771;28;20439;-75
2021/03/24 04:00:24;;;;;;;81.57;45.92;;;8.10;98.50;;;;;;5043674;28;21198;-75
2021/03/24 04:02:55;;;;;;;85.28;47.25;;;8.10;98.50;;;;;;5044867;28;20439;-75
2021/03/24 04:05:36;;;;;;;86.70;47.58;;;8.10;98.50;;;;;;5044594;28;20861;-75
2021/03/24 04:08:10;;;;;;;87.25;47.17;;;8.10;98.50;;;;;;5044878;28;20443;-74
2021/03/24 04:10:40;;;;;;;85.45;48.08;;;8.10;98.50;;;;;;5043906;28;20526;-75
2021/03/24 04:13:08;;;;;;;82.78;47.75;;;8.10;98.60;;;;;;5043817;28;20429;-73
2021/03/24 04:15:36;;;;;;;87.20;47.55;;;8.10;98.70;;;;;;5043512;28;20492;-74
2021/03/24 04:18:06;;;;;;;89.07;46.92;;;8.10;98.70;;;;;;5044503;28;20429;-74
2021/03/24 04:20:35;;;;;;;89.23;47.83;;;8.10;98.80;;;;;;5043162;28;20433;-74
2021/03/24 04:23:05;;;;;;;85.63;48.05;;;8.10;98.80;;;;;;5043247;28;20425;-74
2021/03/24 04:25:36;;;;;;;89.65;48.05;;;8.00;98.70;;;;;;5043975;28;20429;-72
2021/03/24 04:28:04;;;;;;;89.43;47.95;;;8.10;98.80;;;;;;5044932;28;20428;-73
2021/03/24 04:30:36;;;;;;;94.15;48.50;;;8.00;98.80;;;;;;5027106;28;20425;-73
2021/03/24 04:33:03;;;;;;;89.45;49.13;;;8.00;98.80;;;;;;5043960;28;20428;-74
2021/03/24 04:35:29;;;;;;;96.05;48.63;;;8.00;98.90;;;;;;5042450;28;20437;-73
2021/03/24 04:38:00;;;;;;;91.28;50.25;;;8.00;99.00;;;;;;5023520;28;20463;-73
2021/03/24 04:40:31;;;;;;;89.35;49.63;;;8.00;99.00;;;;;;5041743;28;20428;-73
2021/03/24 04:43:01;;;;;;;88.73;48.90;;;8.00;99.10;;;;;;5029532;28;20436;-72
2021/03/24 04:45:34;;;;;;;93.28;50.15;;;8.00;99.10;;;;;;5046337;28;20432;-74
2021/03/24 04:48:05;;;;;;;91.97;49.45;;;7.90;99.10;;;;;;5048408;28;20471;-73
2021/03/24 04:50:35;;;;;;;94.35;49.47;;;8.00;99.20;;;;;;5046089;28;20440;-75
2021/03/24 04:53:05;;;;;;;89.85;48.78;;;8.00;99.20;;;;;;5044742;28;20425;-73
2021/03/24 04:55:33;;;;;;;91.93;50.65;;;8.00;99.20;;;;;;5044183;28;20425;-73
2021/03/24 04:58:02;;;;;;;92.22;50.10;;;8.00;99.20;;;;;;5047872;28;20429;-74
2021/03/24 05:00:35;;;;;;;92.95;49.35;;;8.00;99.20;;;;;;5045789;28;20425;-74
2021/03/24 05:03:09;;;;;;;93.32;49.78;;;7.90;99.20;;;;;;5030055;28;20987;-73
2021/03/24 05:05:41;;;;;;;94.63;49.43;;;8.00;99.20;;;;;;5044251;28;20436;-74
2021/03/24 05:08:15;;;;;;;95.10;51.08;;;8.00;99.20;;;;;;5044701;28;20465;-74
2021/03/24 05:10:42;;;;;;;102.03;51.53;;;8.00;99.20;;;;;;5045256;28;20421;-74
2021/03/24 05:13:16;;;;;;;93.40;50.47;;;8.00;99.10;;;;;;5047415;28;20774;-75
2021/03/24 05:15:46;;;;;;;93.03;51.58;;;7.90;99.20;;;;;;5042307;28;20460;-73
2021/03/24 05:18:14;;;;;;;96.22;51.35;;;7.90;99.20;;;;;;5029688;28;20432;-75
2021/03/24 05:20:45;;;;;;;95.45;51.15;;;7.90;99.30;;;;;;5030782;28;20429;-74
2021/03/24 05:23:16;;;;;;;94.82;51.13;;;7.90;99.30;;;;;;5047665;28;20821;-73
2021/03/24 05:25:45;;;;;;;97.65;50.55;;;7.90;99.40;;;;;;5029562;28;20475;-73
2021/03/24 05:28:16;;;;;;;99.00;52.03;;;7.90;99.30;;;;;;5028934;28;20432;-73
2021/03/24 05:30:53;;;;;;;104.80;53.40;;;7.90;99.50;;;;;;5045833;28;20473;-74
2021/03/24 05:33:23;;;;;;;105.05;53.20;;;7.80;99.50;;;;;;5047786;28;20425;-74
2021/03/24 05:36:00;;;;;;;100.80;52.73;;;7.90;99.60;;;;;;5030457;28;20452;-75
2021/03/24 05:38:33;;;;;;;104.63;53.83;;;7.80;99.50;;;;;;5046602;28;20440;-75
2021/03/24 05:41:09;;;;;;;103.95;53.38;;;7.80;99.60;;;;;;5047062;28;20428;-74
2021/03/24 05:44:00;;;;;;;106.78;53.40;;;7.80;99.60;;;;;;5027842;28;20433;-74
2021/03/24 05:46:45;;;;;;;102.80;54.43;;;7.80;99.90;;;;;;5036915;28;20423;-73
2021/03/24 05:49:26;;;;;;;103.75;55.47;;;7.80;99.70;;;;;;5045362;28;20917;-73
2021/03/24 05:52:06;;;;;;;104.95;53.85;;;7.80;99.80;;;;;;5046622;28;20611;-73
2021/03/24 05:54:45;;;;;;;103.47;53.53;;;7.80;99.90;;;;;;5044670;28;20490;-74
2021/03/24 05:57:40;;;;;;;106.88;54.08;;;7.80;99.90;;;;;;5047083;28;20962;-74
2021/03/24 06:00:21;;;;;;;108.50;55.90;;;7.80;99.90;;;;;;5023624;28;20567;-73
2021/03/24 06:02:59;;;;;;;108.47;55.20;;;7.70;99.90;;;;;;5046319;28;20460;-73
2021/03/24 06:05:30;;;;;;;104.90;54.35;;;7.70;99.90;;;;;;5045529;28;20436;-73
2021/03/24 06:08:42;;;;;;;105.45;54.58;;;7.70;99.90;;;;;;5044672;28;20437;-75
2021/03/24 06:11:32;;;;;;;101.03;53.40;;;7.70;99.90;;;;;;5044099;28;20429;-75
2021/03/24 06:14:32;;;;;;;106.95;55.47;;;7.70;99.90;;;;;;5046175;28;20935;-75
2021/03/24 06:17:18;;;;;;;107.10;54.53;;;7.80;99.90;;;;;;5045525;28;20976;-76
2021/03/24 06:19:56;;;;;;;106.25;54.92;;;7.80;99.90;;;;;;5042450;28;20865;-74
2021/03/24 06:22:36;;;;;;;104.73;55.43;;;7.80;99.90;;;;;;5046120;28;20459;-75
2021/03/24 06:25:18;;;;;;;110.13;54.95;;;7.80;99.90;;;;;;5044554;28;20508;-75
2021/03/24 06:27:58;;;;;;;106.00;53.97;;;7.80;99.90;;;;;;5025029;28;20432;-76
2021/03/24 06:30:38;;;;;;;104.80;54.47;;;7.80;99.90;;;;;;5048575;28;21051;-74
2021/03/24 06:33:26;;;;;;;102.22;53.20;;;7.90;99.90;;;;;;5046774;28;20908;-73
2021/03/24 06:36:17;;;;;;;102.15;54.38;;;7.80;99.90;;;;;;5034666;28;20429;-74
2021/03/24 06:38:58;;;;;;;100.15;53.80;;;7.90;99.90;;;;;;5043540;28;20430;-76
2021/03/24 06:42:00;;;;;;;101.28;54.08;;;7.90;99.90;;;;;;5044696;28;20459;-74
2021/03/24 06:45:05;;;;;;;104.82;54.38;;;7.90;99.90;;;;;;5045372;28;20428;-76
2021/03/24 06:47:42;;;;;;;108.20;56.95;;;7.90;99.90;;;;;;5041536;28;20470;-74
2021/03/24 06:50:37;;;;;;;110.43;57.22;;;7.80;99.90;;;;;;5046813;28;20440;-72
2021/03/24 06:53:39;;;;;;;108.77;59.33;;;7.80;99.90;;;;;;5046506;28;20499;-75
2021/03/24 06:56:38;;;;;;;117.38;61.35;;;7.80;99.90;;;;;;5030014;28;20429;-76
2021/03/24 06:59:52;;;;;;;114.20;61.35;;;7.90;99.90;;;;;;5047670;28;20421;-74
2021/03/24 07:02:48;;;;;;;113.18;58.80;;;7.90;99.90;;;;;;5045355;28;20428;-73
2021/03/24 07:05:49;;;;;;;106.90;57.10;;;7.80;99.90;;;;;;5041296;28;20425;-76
2021/03/24 07:08:31;;;;;;;111.85;56.58;;;7.90;99.90;;;;;;5048056;28;20409;-77
2021/03/24 07:11:07;;;;;;;97.53;54.72;;;7.90;99.90;;;;;;5046065;28;20417;-76
2021/03/24 07:14:14;;;;;;;99.47;53.75;;;7.80;99.90;;;;;;5047020;28;20471;-76
2021/03/24 07:17:23;;;;;;;95.77;53.00;;;7.80;99.90;;;;;;5045768;28;20425;-76
2021/03/24 07:20:18;;;;;;;95.57;52.88;;;7.80;99.90;;;;;;5046586;28;20436;-74
2021/03/24 07:23:06;;;;;;;98.00;52.63;;;7.90;99.90;;;;;;5026671;28;20446;-74
2021/03/24 07:25:43;;;;;;;94.47;51.83;;;7.90;99.90;;;;;;5046864;28;20437;-75
2021/03/24 07:28:30;;;;;;;94.30;52.25;;;7.90;99.90;;;;;;5046114;28;20462;-75
2021/03/24 07:31:39;;;;;;;91.72;51.20;;;8.00;99.90;;;;;;5027235;28;20417;-74
2021/03/24 07:34:18;;;;;;;97.55;52.40;;;8.10;99.90;;;;;;5046357;28;20425;-74
2021/03/24 07:37:23;;;;;;;90.32;50.13;;;8.10;99.90;;;;;;5047197;28;20418;-77
2021/03/24 07:40:02;;;;;;;90.20;51.13;;;8.10;99.90;;;;;;5028319;28;20425;-77
2021/03/24 07:42:59;;;;;;;86.47;49.60;;;8.10;99.90;;;;;;5028841;28;20433;-76
2021/03/24 07:45:47;;;;;;;88.55;49.17;;;8.20;99.90;;;;;;5045796;28;20940;-76
2021/03/24 07:48:27;;;;;;;85.47;47.75;;;8.20;99.90;;;;;;5040275;28;20436;-75
2021/03/24 07:51:02;;;;;;;86.38;47.60;;;8.30;99.90;;;;;;5034817;28;20423;-75
2021/03/24 07:53:38;;;;;;;87.47;49.47;;;8.30;99.90;;;;;;5039444;28;20784;-75
2021/03/24 07:56:19;;;;;;;84.22;47.97;;;8.40;99.90;;;;;;5024959;28;20425;-74
2021/03/24 07:59:27;;;;;;;82.63;48.10;;;8.40;99.90;;;;;;5046619;28;20503;-75
2021/03/24 08:02:12;;;;;;;84.30;47.30;;;8.50;99.90;;;;;;5046362;28;20417;-76
2021/03/24 08:05:20;;;;;;;78.57;46.90;;;8.60;99.90;;;;;;5047193;28;20413;-76
2021/03/24 08:07:54;;;;;;;83.47;46.60;;;8.70;99.90;;;;;;5046791;28;21301;-75
2021/03/24 08:10:32;;;;;;;81.87;45.17;;;8.80;99.80;;;;;;5028857;28;20425;-75
2021/03/24 08:13:20;;;;;;;78.88;44.42;;;8.80;99.80;;;;;;5046461;28;20798;-74
2021/03/24 08:16:20;;;;;;;73.93;43.35;;;8.90;99.60;;;;;;5015465;28;20418;-74
2021/03/24 08:18:59;;;;;;;73.87;42.27;;;9.00;99.30;;;;;;5042703;28;20445;-75
2021/03/24 08:21:32;;;;;;;70.22;40.95;;;9.10;99.10;;;;;;5032311;28;20495;-75
2021/03/24 08:24:18;;;;;;;69.15;39.63;;;9.10;99.00;;;;;;5049266;28;20436;-75
2021/03/24 08:26:49;;;;;;;72.65;41.05;;;9.20;98.60;;;;;;5045860;28;20428;-75
2021/03/24 08:29:25;;;;;;;68.32;39.42;;;9.30;98.40;;;;;;5050863;28;20494;-75
2021/03/24 08:32:21;;;;;;;71.22;38.22;;;9.40;98.20;;;;;;5049950;28;20444;-75
2021/03/24 08:35:26;;;;;;;63.75;37.75;;;9.50;98.00;;;;;;5043149;28;20798;-74
2021/03/24 08:38:12;;;;;;;67.90;38.17;;;9.50;97.70;;;;;;5031731;28;20443;-74
2021/03/24 08:41:05;;;;;;;60.55;35.97;;;9.60;97.60;;;;;;5045275;28;20430;-74
2021/03/24 08:43:53;;;;;;;58.60;35.22;;;9.70;97.40;;;;;;5049795;28;20894;-76
2021/03/24 08:46:27;;;;;;;59.63;34.50;;;9.80;96.90;;;;;;5042968;28;20433;-76
2021/03/24 08:48:57;;;;;;;51.22;31.25;;;9.80;96.60;;;;;;5049539;28;20525;-77
2021/03/24 08:51:52;;;;;;;48.63;28.30;;;9.90;96.20;;;;;;5047734;28;20471;-77
2021/03/24 08:55:22;;;;;;;47.93;26.67;;;10.00;95.50;;;;;;5048633;28;20982;-75
2021/03/24 08:58:16;;;;;;;49.80;27.58;;;10.10;94.60;;;;;;4923916;29;20499;-75
2021/03/24 09:01:15;;;;;;;45.90;26.50;;;10.20;94.20;;;;;;4950136;28;20451;-75
2021/03/24 09:04:23;;;;;;;48.25;28.25;;;10.30;94.00;;;;;;5016198;28;20452;-77
2021/03/24 09:06:56;;;;;;;45.30;25.98;;;10.40;93.80;;;;;;5050775;28;20906;-77
2021/03/24 09:09:47;;;;;;;45.60;26.98;;;10.40;93.50;;;;;;5049225;28;20446;-75
2021/03/24 09:12:21;;;;;;;49.53;27.20;;;10.50;93.40;;;;;;5040779;28;20489;-76
2021/03/24 09:14:54;;;;;;;49.22;27.45;;;10.60;93.30;;;;;;5049720;28;20435;-76
2021/03/24 09:17:54;;;;;;;48.25;25.60;;;10.60;93.00;;;;;;5050119;28;20503;-77
2021/03/24 09:20:49;;;;;;;43.63;24.20;;;10.70;92.70;;;;;;5040382;28;20429;-76
2021/03/24 09:24:07;;;;;;;46.13;26.35;;;10.80;92.20;;;;;;5048962;28;20429;-77
2021/03/24 09:27:06;;;;;;;47.77;26.27;;;10.90;91.90;;;;;;5049139;28;20767;-76
2021/03/24 09:29:43;;;;;;;45.63;26.27;;;10.90;91.80;;;;;;5023137;28;20447;-77
2021/03/24 09:32:24;;;;;;;47.80;27.20;;;10.90;91.60;;;;;;5049482;28;20958;-76
2021/03/24 09:35:02;;;;;;;49.78;28.42;;;11.00;91.70;;;;;;5049661;28;20429;-75
2021/03/24 09:37:33;;;;;;;48.93;27.47;;;11.00;91.70;;;;;;5042642;28;20417;-75
2021/03/24 09:40:04;;;;;;;49.95;29.42;;;11.10;91.60;;;;;;5043374;28;20428;-76
2021/03/24 09:42:35;;;;;;;51.60;29.92;;;11.10;91.30;;;;;;5030313;28;20421;-75
2021/03/24 09:45:07;;;;;;;54.40;29.92;;;11.10;91.50;;;;;;5029933;28;20425;-75
2021/03/24 09:47:44;;;;;;;57.95;30.25;;;11.20;91.40;;;;;;5046059;28;20423;-75
2021/03/24 09:50:39;;;;;;;54.00;29.98;;;11.30;91.30;;;;;;5029714;28;20421;-75
2021/03/24 09:53:12;;;;;;;52.63;29.73;;;11.30;90.90;;;;;;5049165;28;20421;-75
2021/03/24 09:55:42;;;;;;;52.30;28.90;;;11.30;90.70;;;;;;5031686;28;20421;-74
2021/03/24 09:58:38;;;;;;;49.83;29.17;;;11.40;90.50;;;;;;5042072;28;20977;-77
2021/03/24 10:01:26;;;;;;;54.15;30.60;;;11.40;90.40;;;;;;5039700;28;20469;-75
2021/03/24 10:04:00;;;;;;;50.87;28.73;;;11.50;90.30;;;;;;5047539;28;20502;-76
2021/03/24 10:06:34;;;;;;;48.00;27.77;;;11.50;90.00;;;;;;5049022;28;20919;-76
2021/03/24 10:09:05;;;;;;;50.03;29.60;;;11.60;89.60;;;;;;5048851;28;20820;-74
2021/03/24 10:11:39;;;;;;;50.67;29.10;;;11.60;89.40;;;;;;5047552;28;22351;-78
2021/03/24 10:14:11;;;;;;;53.35;28.52;;;11.70;89.40;;;;;;5043493;28;20884;-75
2021/03/24 10:16:45;;;;;;;58.22;27.98;;;11.80;89.10;;;;;;5024115;28;20436;-75
2021/03/24 10:19:22;;;;;;;51.33;27.60;;;11.80;89.20;;;;;;5048824;28;20425;-75
2021/03/24 10:21:54;;;;;;;50.13;27.80;;;11.90;88.20;;;;;;5049017;28;20502;-76
2021/03/24 10:24:24;;;;;;;48.20;28.50;;;12.00;86.80;;;;;;5028996;28;20425;-76
2021/03/24 10:26:54;;;;;;;52.10;28.45;;;12.00;87.20;;;;;;5048053;28;20935;-74
2021/03/24 10:29:25;;;;;;;48.43;27.63;;;12.00;86.90;;;;;;5043770;28;20432;-75
2021/03/24 10:31:55;;;;;;;52.03;28.42;;;12.00;86.90;;;;;;5029585;28;21147;-76
2021/03/24 10:34:28;;;;;;;55.43;28.90;;;12.10;86.50;;;;;;5030047;28;20418;-75
2021/03/24 10:37:00;;;;;;;50.53;28.50;;;12.10;86.10;;;;;;5047526;28;20413;-75
2021/03/24 10:39:33;;;;;;;50.63;28.75;;;12.20;86.10;;;;;;5030612;28;20420;-75
2021/03/24 10:42:15;;;;;;;48.80;28.42;;;12.20;85.70;;;;;;5048103;28;20425;-75
2021/03/24 10:44:49;;;;;;;50.70;28.00;;;12.20;85.50;;;;;;5049421;28;20424;-76
2021/03/24 10:47:32;;;;;;;49.22;27.55;;;12.30;85.50;;;;;;5031674;28;20807;-76
2021/03/24 10:50:26;;;;;;;48.47;27.45;;;12.30;84.60;;;;;;5048633;28;20417;-75
2021/03/24 10:53:08;;;;;;;52.63;27.85;;;12.40;83.70;;;;;;5045782;28;20902;-76
2021/03/24 10:55:38;;;;;;;53.60;26.92;;;12.40;83.60;;;;;;5047165;28;20528;-76
2021/03/24 10:58:25;;;;;;;49.97;28.08;;;12.40;83.40;;;;;;5030413;28;20422;-77
2021/03/24 11:01:04;;;;;;;51.22;27.65;;;12.50;82.80;;;;;;5048535;28;20770;-76
2021/03/24 11:03:39;;;;;;;46.85;27.52;;;12.60;82.10;;;;;;5029499;28;20425;-76
2021/03/24 11:06:12;;;;;;;47.25;27.88;;;12.70;81.70;;;;;;5048211;28;20437;-76
2021/03/24 11:08:44;;;;;;;49.08;26.98;;;12.80;81.30;;;;;;5029949;28;20434;-76
2021/03/24 11:11:16;;;;;;;47.08;27.65;;;12.90;80.70;;;;;;5032083;28;21007;-77
2021/03/24 11:13:52;;;;;;;51.65;27.60;;;12.90;80.30;;;;;;5048063;28;20421;-76
2021/03/24 11:16:27;;;;;;;43.38;26.25;;;13.00;80.30;;;;;;5030566;28;20425;-77
2021/03/24 11:18:57;;;;;;;47.33;26.58;;;13.00;80.20;;;;;;5046471;28;20425;-74
2021/03/24 11:21:48;;;;;;;47.22;27.20;;;13.10;79.50;;;;;;5043069;28;20421;-74
2021/03/24 11:24:21;;;;;;;67.97;28.75;;;13.20;78.60;;;;;;5047786;28;20421;-75
2021/03/24 11:27:11;;;;;;;50.67;28.23;;;13.20;77.70;;;;;;5047807;28;20436;-75
2021/03/24 11:30:05;;;;;;;109.72;30.65;;;13.30;77.70;;;;;;5046446;28;20424;-76
2021/03/24 11:32:44;;;;;;;53.33;28.05;;;13.30;77.70;;;;;;5031406;28;20421;-74
2021/03/24 11:35:28;;;;;;;66.63;28.35;;;13.30;78.00;;;;;;5046638;28;20421;-74
2021/03/24 11:38:08;;;;;;;53.53;27.97;;;13.40;77.60;;;;;;5013353;28;20444;-74
2021/03/24 11:40:42;;;;;;;51.97;28.80;;;13.50;76.90;;;;;;5046431;28;20919;-74
2021/03/24 11:43:19;;;;;;;47.40;28.00;;;13.60;76.10;;;;;;5046453;28;20684;-77
2021/03/24 11:45:46;;;;;;;51.80;28.48;;;13.70;76.10;;;;;;5031363;28;20421;-75
2021/03/24 11:48:51;;;;;;;50.25;27.75;;;13.70;75.50;;;;;;5046409;28;20417;-76
2021/03/24 11:51:29;;;;;;;50.20;28.20;;;13.70;75.40;;;;;;5039084;28;20498;-74
2021/03/24 11:54:11;;;;;;;51.33;28.25;;;13.70;75.40;;;;;;5052190;28;20532;-76
2021/03/24 11:57:03;;;;;;;48.85;27.80;;;13.80;74.90;;;;;;5053765;28;20408;-76
2021/03/24 11:59:41;;;;;;;50.70;27.90;;;13.80;74.10;;;;;;5039431;28;20425;-75
2021/03/24 12:02:15;;;;;;;48.23;27.97;;;13.70;73.90;;;;;;5040830;28;20467;-77
2021/03/24 12:05:12;;;;;;;49.22;27.38;;;13.70;73.80;;;;;;5052978;28;20417;-76
2021/03/24 12:08:01;;;;;;;46.67;27.65;;;13.70;73.80;;;;;;5043597;28;20428;-75
2021/03/24 12:10:34;;;;;;;49.17;27.35;;;13.80;73.90;;;;;;5053464;28;20420;-75
2021/03/24 12:13:08;;;;;;;47.85;27.35;;;13.80;73.60;;;;;;5027463;28;20496;-76
2021/03/24 12:15:36;;;;;;;46.40;26.67;;;13.80;73.60;;;;;;5053721;28;20750;-76
2021/03/24 12:18:08;;;;;;;43.42;25.77;;;13.90;73.50;;;;;;5034083;28;20797;-76
2021/03/24 12:20:56;;;;;;;49.47;26.88;;;14.00;73.80;;;;;;5049715;28;20765;-74
2021/03/24 12:23:26;;;;;;;41.20;25.02;;;14.10;72.60;;;;;;5054027;28;20460;-74
2021/03/24 12:25:55;;;;;;;42.20;24.95;;;14.20;71.00;;;;;;5034851;28;20988;-76
2021/03/24 12:28:32;;;;;;;50.85;26.67;;;14.30;70.80;;;;;;5054567;28;20424;-75
2021/03/24 12:31:05;;;;;;;43.47;25.10;;;14.40;70.10;;;;;;5053350;28;20424;-74
2021/03/24 12:33:35;;;;;;;44.65;25.67;;;14.40;69.50;;;;;;5047160;28;20510;-73
2021/03/24 12:36:08;;;;;;;46.30;25.27;;;14.40;69.90;;;;;;5053201;28;20432;-75
2021/03/24 12:38:45;;;;;;;46.60;25.35;;;14.50;70.00;;;;;;5051380;28;20449;-74
2021/03/24 12:41:12;;;;;;;43.90;25.95;;;14.60;69.80;;;;;;5052382;28;20425;-74
2021/03/24 12:43:41;;;;;;;53.13;26.38;;;14.60;69.90;;;;;;5054008;28;20423;-74
2021/03/24 12:46:10;;;;;;;43.63;26.00;;;14.70;69.00;;;;;;5053880;28;20433;-74
2021/03/24 12:48:45;;;;;;;45.97;25.75;;;14.70;68.60;;;;;;5035886;28;20979;-75
2021/03/24 12:51:14;;;;;;;47.88;27.17;;;14.80;68.50;;;;;;5053951;28;20447;-74
2021/03/24 12:53:45;;;;;;;44.83;26.02;;;14.80;67.90;;;;;;5035386;28;20425;-75
2021/03/24 12:56:59;;;;;;;49.33;26.13;;;14.80;67.20;;;;;;5034619;28;20417;-76
2021/03/24 12:59:39;;;;;;;47.00;25.88;;;14.80;66.80;;;;;;5045184;28;20428;-74
2021/03/24 13:02:22;;;;;;;46.45;26.52;;;14.80;66.80;;;;;;5036486;28;20429;-75
2021/03/24 13:05:06;;;;;;;45.55;25.65;;;14.90;66.90;;;;;;5047846;28;20474;-74
2021/03/24 13:07:42;;;;;;;52.45;26.10;;;15.00;66.50;;;;;;5049113;28;20502;-74
2021/03/24 13:10:35;;;;;;;43.53;25.38;;;15.20;65.60;;;;;;5046820;28;20417;-74
2021/03/24 13:13:12;;;;;;;42.67;23.75;;;15.20;64.60;;;;;;5050346;28;20428;-73
2021/03/24 13:15:49;;;;;;;43.63;24.88;;;15.20;64.30;;;;;;5049664;28;20447;-74
2021/03/24 13:18:25;;;;;;;38.78;23.30;;;15.20;64.20;;;;;;5047581;28;20439;-75
2021/03/24 13:21:20;;;;;;;42.53;23.50;;;15.10;64.20;;;;;;5044783;28;20463;-74
2021/03/24 13:23:55;;;;;;;35.55;22.40;;;15.20;64.30;;;;;;5045772;28;20425;-75